Latest Weather Observations for Warwick

IDQ60801

Issued at 4:35 pm EST Monday 24 November 2014 (issued every 30 minutes, with the page automatically refreshed every 10 minutes)

About weather observations | Map of weather stations | Latest weather observations for QLD | Other Formats
Station Details ID: 041525 Name: WARWICK Lat: -28.21 Lon: 152.10 Height: 475.4 m
Data from the previous 72 hours. | See also: Recent months at Warwick
Date/Time
EST
Temp
°C
App
Temp
°C
Dew
Point
Rel
Hum
%
Delta-T
°C
Wind Press
QNH
hPa
Press
MSL
hPa
Rain
since 9 am
mm
Dir
 
Spd
km/h
Gust
km/h
Spd
kts
Gust
kts
24/04:30pm - - - - - - - - - - 1011.5 1009.4 -
24/04:00pm - - - - - - - - - - 1011.6 1009.5 -
24/03:30pm - - - - - - - - - - 1011.9 1009.8 -
24/03:00pm - - - - - - - - - - 1012.5 1010.5 -
24/02:30pm - - - - - - - - - - 1013.0 1010.9 -
24/02:00pm - - - - - - - - - - 1013.7 1011.6 -
24/01:30pm - - - - - - - - - - 1014.4 1012.4 -
24/01:00pm - - - - - - - - - - 1014.9 1012.9 -
24/12:30pm - - - - - - - - - - 1015.6 1013.5 -
24/12:00pm 31.5 29.8 12.6 31 11.4 NW 13 22 7 12 1016.3 1014.3 0.0
24/11:30am 30.3 29.6 15.5 40 9.3 NW 13 20 7 11 1016.7 1014.7 0.0
24/11:00am 28.7 27.3 15.6 45 8.2 WNW 17 24 9 13 1017.5 1015.4 0.0
24/10:30am 28.3 28.1 15.7 46 7.9 WNW 11 20 6 11 1017.9 1015.8 0.0
24/10:00am 25.9 25.5 16.1 54 6.1 NW 13 22 7 12 1018.4 1016.4 0.0
24/09:30am 25.4 24.4 16.6 58 5.5 NW 17 22 9 12 1018.5 1016.5 0.0
24/09:00am 25.6 25.6 16.3 56 5.8 N 11 24 6 13 1018.6 1016.6 0.0
24/08:30am 25.7 25.1 16.6 57 5.7 N 15 22 8 12 1018.8 1016.8 0.0
24/08:00am 25.6 25.6 17.2 59 5.3 NW 13 20 7 11 1018.8 1016.8 0.0
24/07:30am 23.9 22.6 17.2 66 4.2 N 20 26 11 14 1018.8 1016.8 0.0
24/07:00am 23.1 22.0 17.7 71 3.4 N 20 28 11 15 1018.5 1016.5 0.0
24/06:30am 22.3 23.9 17.9 76 2.8 N 6 11 3 6 1018.4 1016.4 0.0
24/06:00am 21.2 22.1 17.5 79 2.3 W 9 13 5 7 1018.0 1016.0 0.0
24/05:30am 20.5 23.0 17.3 82 2.0 CALM 0 0 0 0 1017.5 1015.4 0.0
24/05:00am 20.2 22.8 17.6 85 1.6 CALM 0 0 0 0 1017.1 1015.1 0.0
24/04:30am 20.0 22.3 16.8 82 2.0 CALM 0 0 0 0 1016.7 1014.7 0.0
24/04:00am 20.9 23.2 16.7 77 2.6 CALM 0 0 0 0 1016.2 1014.2 0.0
24/03:30am 21.4 24.3 18.1 81 2.1 CALM 0 4 0 2 1016.2 1014.2 0.0
24/03:00am 21.8 24.5 17.8 78 2.5 CALM 0 0 0 0 1016.2 1014.2 0.0
24/02:30am 21.6 23.1 17.6 78 2.5 WSW 6 11 3 6 1016.4 1014.4 0.0
24/02:00am 21.9 24.7 18.0 78 2.5 CALM 0 0 0 0 1016.3 1014.3 0.0
24/01:30am 22.5 24.3 17.4 73 3.2 ENE 4 9 2 5 1016.4 1014.4 0.0
24/01:00am 23.2 25.5 17.8 71 3.4 W 2 6 1 3 1016.6 1014.6 0.0
24/12:30am 24.3 25.6 18.4 69 3.8 ENE 9 13 5 7 1016.7 1014.7 0.0
24/12:00am 24.9 25.7 18.2 66 4.3 NE 11 17 6 9 1016.9 1014.9 0.0
 
Date/Time
EST
Temp
°C
App
Temp
°C
Dew
Point
Rel
Hum
%
Delta-T
°C
Wind Press
QNH
hPa
Press
MSL
hPa
Rain
since 9 am
mm
Dir
 
Spd
km/h
Gust
km/h
Spd
kts
Gust
kts
23/11:30pm 25.2 25.5 17.8 63 4.7 N 13 17 7 9 1017.0 1015.0 0.0
23/11:00pm 24.8 25.8 17.7 64 4.5 NNE 9 9 5 5 1017.4 1015.3 0.0
23/10:30pm 24.8 26.0 18.3 67 4.2 NE 9 11 5 6 1017.4 1015.3 0.0
23/10:00pm 25.3 26.3 18.7 67 4.3 NE 11 13 6 7 1017.1 1015.1 0.0
23/09:30pm 25.8 28.5 18.7 65 4.6 E 2 9 1 5 1017.0 1015.0 0.0
23/09:00pm 26.4 29.5 19.4 65 4.6 SE 2 9 1 5 1016.7 1014.7 0.0
23/08:30pm 27.0 29.2 19.1 62 5.2 E 6 9 3 5 1016.5 1014.5 0.0
23/08:00pm 27.6 29.1 18.9 59 5.7 NE 9 13 5 7 1016.6 1014.6 0.0
23/07:30pm 28.1 28.9 19.1 58 5.9 E 13 19 7 10 1016.3 1014.3 0.0
23/07:00pm 28.7 29.9 19.1 56 6.3 E 11 15 6 8 1015.7 1013.6 0.0
23/06:30pm 29.5 30.7 19.0 53 6.9 ENE 11 17 6 9 1015.3 1013.2 0.0
23/06:00pm 30.6 31.1 18.4 48 8.0 ENE 13 20 7 11 1014.9 1012.9 0.0
23/05:30pm 31.1 31.6 18.3 46 8.4 E 13 20 7 11 1014.2 1012.2 0.0
23/05:00pm 32.3 30.5 17.8 42 9.5 NE 24 35 13 19 1013.7 1011.6 0.0
23/04:30pm 33.2 31.5 17.2 38 10.4 NE 22 30 12 16 1013.7 1011.6 0.0
23/04:00pm 31.9 32.0 17.4 42 9.4 ENE 13 20 7 11 1013.8 1011.7 0.0
23/03:30pm 32.3 31.6 16.4 38 10.2 NE 15 19 8 10 1014.0 1011.9 0.0
23/03:00pm 33.5 31.1 16.4 36 11.0 NE 24 30 13 16 1014.0 1011.9 0.0
23/02:30pm 36.0 32.7 14.9 28 13.4 NE 26 35 14 19 1013.6 1011.5 0.0
23/02:16pm 35.7 31.6 16.0 31 12.7 NE 32 37 17 20 1013.9 1011.8 0.0
23/02:00pm 36.6 36.7 16.4 30 13.1 W 11 17 6 9 1014.4 1012.4 0.0
23/01:30pm 35.8 35.3 15.9 30 12.8 W 13 28 7 15 1014.8 1012.8 0.0
23/01:00pm 35.8 34.8 16.7 32 12.4 N 17 32 9 17 1015.1 1013.0 0.0
23/12:30pm 34.7 33.6 17.2 35 11.4 WNW 19 26 10 14 1015.5 1013.4 0.0
23/12:00pm 33.8 33.5 17.4 37 10.7 WNW 15 30 8 16 1016.1 1014.1 0.0
23/11:30am 33.7 31.9 16.0 34 11.3 NNW 20 30 11 16 1016.8 1014.8 0.0
23/11:00am 33.1 31.1 15.4 34 11.2 N 20 28 11 15 1017.1 1015.1 0.0
23/10:30am 32.0 31.5 16.8 40 9.8 NNW 15 26 8 14 1017.6 1015.5 0.0
23/10:00am 31.5 30.4 16.3 40 9.7 NNW 17 30 9 16 1017.9 1015.8 0.0
23/09:30am 30.9 31.3 17.3 44 8.8 NW 11 22 6 12 1018.0 1016.0 0.0
23/09:00am 29.3 29.1 16.6 46 8.1 NNW 13 20 7 11 1018.2 1016.2 0.0
23/08:30am 29.3 29.3 17.3 48 7.7 NNW 13 22 7 12 1018.3 1016.3 0.0
23/08:00am 27.6 28.2 18.7 58 5.8 N 13 24 7 13 1018.3 1016.3 0.0
23/07:30am 26.4 26.7 18.7 62 5.0 N 15 22 8 12 1018.4 1016.4 0.0
23/07:00am 25.7 27.4 19.4 68 4.1 NNE 9 15 5 8 1018.3 1016.3 0.0
23/06:30am 24.9 26.3 19.6 72 3.5 NE 11 15 6 8 1018.1 1016.1 0.0
23/06:00am 24.2 25.9 19.4 74 3.1 NE 9 13 5 7 1017.7 1015.6 0.0
23/05:30am 21.9 24.1 19.3 85 1.7 ENE 6 9 3 5 1017.4 1015.3 0.0
23/05:00am 21.9 23.5 19.1 84 1.8 N 9 15 5 8 1017.0 1015.0 0.0
23/04:30am 20.8 24.1 19.2 90 1.0 CALM 0 0 0 0 1016.5 1014.5 0.0
23/04:00am 21.6 25.0 19.4 87 1.4 CALM 0 0 0 0 1015.9 1013.8 0.0
23/03:30am 22.0 25.1 19.5 86 1.6 NE 2 7 1 4 1015.6 1013.5 0.0
23/03:00am 21.9 24.5 19.3 85 1.7 E 4 9 2 5 1015.4 1013.3 0.0
23/02:30am 23.4 25.9 20.2 82 2.1 WSW 7 11 4 6 1015.2 1013.1 0.0
23/02:00am 23.3 27.0 19.9 81 2.2 CALM 0 0 0 0 1014.8 1012.8 0.0
23/01:30am 23.4 27.1 19.9 81 2.3 CALM 0 0 0 0 1014.9 1012.9 0.0
23/01:00am 23.1 26.9 20.1 83 2.0 CALM 0 0 0 0 1015.1 1013.0 0.0
23/12:30am 23.2 26.4 18.9 77 2.8 CALM 0 0 0 0 1015.4 1013.3 0.0
23/12:00am 24.4 28.3 20.3 78 2.7 CALM 0 0 0 0 1015.6 1013.5 0.0
 
Date/Time
EST
Temp
°C
App
Temp
°C
Dew
Point
Rel
Hum
%
Delta-T
°C
Wind Press
QNH
hPa
Press
MSL
hPa
Rain
since 9 am
mm
Dir
 
Spd
km/h
Gust
km/h
Spd
kts
Gust
kts
22/11:30pm 24.9 27.1 19.1 70 3.8 NNE 6 7 3 4 1015.8 1013.7 0.0
22/11:00pm 25.4 27.4 19.1 68 4.1 NNE 7 9 4 5 1015.9 1013.8 0.0
22/10:30pm 26.0 29.4 19.4 67 4.3 CALM 0 0 0 0 1015.9 1013.8 0.0
22/10:00pm 26.8 28.3 19.8 65 4.6 E 11 19 6 10 1015.6 1013.5 0.0
22/09:30pm 27.0 28.5 19.7 64 4.8 E 11 20 6 11 1015.3 1013.2 0.0
22/09:00pm 27.3 30.0 20.2 65 4.7 SE 6 15 3 8 1015.3 1013.2 0.0
22/08:30pm 28.1 27.7 19.3 58 5.8 ENE 20 28 11 15 1014.6 1012.6 0.0
22/08:00pm 28.2 27.8 19.4 59 5.8 NE 20 28 11 15 1014.1 1012.0 0.0
22/07:30pm 29.0 28.7 19.5 56 6.3 NE 20 28 11 15 1013.6 1011.5 0.0
22/07:00pm 29.6 28.3 19.9 56 6.5 NE 26 33 14 18 1013.2 1011.1 0.0
22/06:30pm 31.0 30.8 19.8 51 7.5 NE 20 28 11 15 1012.8 1010.7 0.0
22/06:00pm 32.5 31.3 19.3 45 8.8 NE 24 30 13 16 1012.2 1010.1 0.0
22/05:30pm 34.8 33.7 13.1 27 13.4 NNW 11 19 6 10 1011.8 1009.7 0.0
22/05:00pm 35.9 34.9 13.4 26 14.0 NNW 11 22 6 12 1011.5 1009.4 0.0
22/04:30pm 36.2 34.9 13.6 25 14.1 NW 13 24 7 13 1011.4 1009.3 0.0
22/04:00pm 36.3 35.3 14.5 27 13.8 NW 13 19 7 10 1011.4 1009.3 0.0
22/03:30pm 36.0 34.7 14.7 28 13.5 WNW 15 26 8 14 1011.5 1009.4 0.0
22/03:00pm 35.7 33.6 14.7 28 13.3 NW 19 28 10 15 1011.9 1009.8 0.0
22/02:30pm 35.1 33.9 16.2 32 12.2 NW 17 24 9 13 1012.3 1010.3 0.0
22/02:00pm 34.4 34.4 18.2 38 10.7 NNW 15 26 8 14 1012.9 1010.8 0.0
22/01:30pm 34.2 33.9 17.4 36 11.0 NW 15 20 8 11 1013.2 1011.1 0.0
22/01:00pm 33.7 32.9 17.9 39 10.4 N 19 30 10 16 1013.7 1011.6 0.0
22/12:30pm 32.6 32.9 18.7 43 9.2 NNE 15 26 8 14 1014.0 1011.9 0.0
22/12:00pm 32.3 32.6 18.7 44 9.0 NW 15 22 8 12 1014.4 1012.4 0.0
22/11:30am 31.7 31.7 19.0 47 8.4 NW 17 30 9 16 1015.1 1013.0 0.0
22/11:00am 30.7 30.4 19.2 50 7.6 NNW 19 30 10 16 1015.6 1013.5 0.0
22/10:30am 30.5 30.6 19.2 51 7.5 N 17 30 9 16 1015.9 1013.8 0.0
22/10:00am 29.3 29.7 19.1 54 6.7 WNW 15 20 8 11 1016.1 1014.1 0.0
22/09:30am 28.2 27.7 19.1 57 6.0 NW 20 32 11 17 1016.3 1014.3 0.0
22/09:00am 27.9 28.1 19.4 60 5.6 NNW 17 28 9 15 1016.4 1014.4 3.0
22/08:30am 27.0 26.7 19.1 62 5.2 NW 19 28 10 15 1016.3 1014.3 3.0
22/08:00am 27.0 28.0 19.4 63 5.0 NW 13 24 7 13 1016.4 1014.4 3.0
22/07:30am 26.1 29.6 20.4 71 3.8 WSW 2 9 1 5 1016.2 1014.2 3.0
22/07:00am 24.2 27.8 20.6 80 2.4 SE 2 7 1 4 1015.9 1013.8 3.0
22/06:30am 23.0 26.9 20.3 85 1.8 CALM 0 0 0 0 1015.8 1013.7 3.0
22/06:00am 21.1 24.5 19.4 90 1.1 CALM 0 0 0 0 1015.5 1013.4 3.0
22/05:30am 20.0 23.2 18.9 93 0.7 CALM 0 0 0 0 1015.1 1013.0 3.0
22/05:00am 19.3 22.3 18.5 95 0.5 CALM 0 0 0 0 1014.6 1012.6 3.0
22/04:30am 19.6 22.8 18.8 95 0.5 CALM 0 0 0 0 1014.2 1012.2 3.0
22/04:00am 19.5 22.6 18.6 94 0.6 CALM 0 0 0 0 1013.7 1011.6 3.0
22/03:30am 19.7 22.8 18.6 93 0.7 CALM 0 0 0 0 1013.5 1011.4 3.0
22/03:00am 20.2 22.0 18.8 92 0.9 SW 7 9 4 5 1013.3 1011.2 3.0
22/02:30am 20.4 23.9 19.5 95 0.6 CALM 0 0 0 0 1013.1 1011.0 3.0
22/02:00am 20.7 23.8 19.5 93 0.8 SE 2 7 1 4 1013.0 1010.9 3.0
22/01:30am 21.2 24.6 19.3 89 1.2 CALM 0 0 0 0 1013.1 1011.0 3.0
22/01:00am 21.0 24.3 19.0 88 1.3 CALM 0 0 0 0 1013.2 1011.1 3.0
22/12:30am 21.2 23.8 18.5 84 1.7 NW 2 7 1 4 1013.5 1011.4 3.0
22/12:00am 21.4 23.7 19.4 88 1.3 W 6 9 3 5 1013.5 1011.4 3.0
 
Date/Time
EST
Temp
°C
App
Temp
°C
Dew
Point
Rel
Hum
%
Delta-T
°C
Wind Press
QNH
hPa
Press
MSL
hPa
Rain
since 9 am
mm
Dir
 
Spd
km/h
Gust
km/h
Spd
kts
Gust
kts
21/11:30pm 21.9 25.3 19.4 86 1.6 CALM 0 6 0 3 1013.1 1011.0 3.0
21/11:00pm 22.0 25.1 19.5 86 1.6 W 2 9 1 5 1013.7 1011.6 3.0
21/10:30pm 22.4 24.5 19.3 82 2.0 WNW 7 9 4 5 1014.4 1012.4 3.0
21/10:00pm 22.9 24.1 17.3 70 3.5 NNE 7 13 4 7 1014.1 1012.0 3.0
21/09:30pm 22.6 25.2 19.2 81 2.2 WSW 4 9 2 5 1014.5 1012.5 3.0
21/09:00pm 23.5 22.0 20.2 82 2.2 NNE 28 39 15 21 1014.1 1012.0 2.8
21/08:30pm 27.0 27.4 19.1 62 5.2 NW 15 24 8 13 1014.7 1012.7 0.0
21/08:26pm 27.7 28.5 19.0 59 5.7 NW 13 20 7 11 1014.7 1012.7 0.0
21/08:00pm 27.3 26.9 19.4 62 5.2 NE 20 28 11 15 1012.5 1010.5 0.0
21/07:30pm 27.5 26.1 19.6 62 5.2 ENE 26 35 14 19 1012.0 1009.9 0.0
21/07:00pm 28.4 27.5 19.1 57 6.1 ENE 22 30 12 16 1011.8 1009.7 0.0
21/06:30pm 29.7 31.5 19.5 54 6.8 ESE 9 20 5 11 1011.8 1009.7 0.0
21/06:00pm 31.4 29.0 16.4 40 9.6 NNE 24 32 13 17 1010.7 1008.6 0.0
21/05:30pm 31.3 29.3 15.5 38 10.0 NNE 20 26 11 14 1010.6 1008.5 0.0
21/05:00pm 32.2 29.9 15.7 37 10.5 N 22 33 12 18 1010.2 1008.1 0.0
21/04:53pm 32.3 28.9 15.8 37 10.5 N 28 46 15 25 1010.2 1008.1 0.0

Other Formats:

Comma delimited format used in spreadsheet applications
http://www.bom.gov.au/fwo/IDQ60801/IDQ60801.94555.axf

JavaScript Object Notation format (JSON) in row-major order
http://www.bom.gov.au/fwo/IDQ60801/IDQ60801.94555.json